Time;durP1;ratioP1;P1;durP2;ratioP2;P2;SDS_P1;SDS_P2;PMS_P1;PMS_P2;Temp;Humidity;BMP_temperature;BMP_pressure;BME280_temperature;BME280_humidity;BME280_pressure;Samples;Min_cycle;Max_cycle;Signal;HPM_P1;HPM_P2
2020/12/28 00:02:16;;;;;;;10.98;8.15;;;;;;;;;;5052719;28;20032;-75
2020/12/28 00:04:42;;;;;;;10.95;8.40;;;;;;;;;;5052886;28;20024;-75
2020/12/28 00:07:08;;;;;;;11.93;9.02;;;;;;;;;;5052743;28;20021;-75
2020/12/28 00:09:34;;;;;;;14.75;9.32;;;;;;;;;;5052380;28;20048;-75
2020/12/28 00:12:01;;;;;;;11.60;9.65;;;;;;;;;;5052485;28;20029;-75
2020/12/28 00:14:27;;;;;;;13.73;8.85;;;;;;;;;;5052068;28;20369;-75
2020/12/28 00:16:54;;;;;;;12.82;9.68;;;;;;;;;;5053687;28;20024;-75
2020/12/28 00:19:20;;;;;;;11.00;8.88;;;;;;;;;;5053710;28;20017;-75
2020/12/28 00:21:46;;;;;;;14.30;12.07;;;;;;;;;;5052145;28;20086;-75
2020/12/28 00:24:12;;;;;;;12.00;9.93;;;;;;;;;;5052322;28;20136;-76
2020/12/28 00:26:42;;;;;;;15.15;11.32;;;;;;;;;;5053347;28;20461;-76
2020/12/28 00:29:08;;;;;;;13.83;10.77;;;;;;;;;;5052247;28;20145;-75
2020/12/28 00:31:35;;;;;;;17.30;12.48;;;;;;;;;;5051394;28;20295;-76
2020/12/28 00:34:01;;;;;;;16.52;11.95;;;;;;;;;;5052174;28;20047;-76
2020/12/28 00:36:27;;;;;;;16.13;11.55;;;;;;;;;;5053293;28;20104;-76
2020/12/28 00:38:54;;;;;;;19.77;13.10;;;;;;;;;;5052113;28;20021;-76
2020/12/28 00:41:20;;;;;;;16.38;12.68;;;;;;;;;;5051976;28;20028;-76
2020/12/28 00:43:46;;;;;;;15.93;11.40;;;;;;;;;;5051734;28;20338;-76
2020/12/28 00:46:13;;;;;;;16.42;12.52;;;;;;;;;;5053150;28;20028;-76
2020/12/28 00:48:39;;;;;;;17.33;12.88;;;;;;;;;;5052786;28;20018;-75
2020/12/28 00:51:05;;;;;;;20.77;13.75;;;;;;;;;;5053417;28;20024;-75
2020/12/28 00:53:32;;;;;;;17.35;12.30;;;;;;;;;;5052497;28;20373;-75
2020/12/28 00:55:58;;;;;;;16.33;11.63;;;;;;;;;;5053040;28;20021;-75
2020/12/28 00:58:24;;;;;;;14.60;11.25;;;;;;;;;;5051661;28;20021;-75
2020/12/28 01:00:51;;;;;;;14.55;10.98;;;;;;;;;;5051372;28;20432;-75
2020/12/28 01:03:17;;;;;;;16.00;11.93;;;;;;;;;;5051630;28;20127;-75
2020/12/28 01:05:43;;;;;;;14.13;11.13;;;;;;;;;;5051357;28;20021;-75
2020/12/28 01:08:10;;;;;;;15.73;12.52;;;;;;;;;;5051709;28;20028;-75
2020/12/28 01:10:36;;;;;;;17.88;13.05;;;;;;;;;;5051290;28;20017;-76
2020/12/28 01:13:03;;;;;;;20.40;13.75;;;;;;;;;;5051367;28;20029;-76
2020/12/28 01:15:29;;;;;;;17.92;13.32;;;;;;;;;;5052233;28;20024;-76
2020/12/28 01:17:55;;;;;;;17.00;12.30;;;;;;;;;;5052589;28;20024;-76
2020/12/28 01:20:21;;;;;;;16.90;11.63;;;;;;;;;;5052727;28;20028;-76
2020/12/28 01:22:48;;;;;;;17.75;12.45;;;;;;;;;;5051023;28;20068;-76
2020/12/28 01:25:14;;;;;;;19.55;13.55;;;;;;;;;;5051286;28;20625;-76
2020/12/28 01:27:40;;;;;;;18.35;13.18;;;;;;;;;;5052552;28;20499;-76
2020/12/28 01:30:06;;;;;;;19.35;13.85;;;;;;;;;;5051166;28;20443;-74
2020/12/28 01:32:32;;;;;;;17.45;13.23;;;;;;;;;;5050606;28;20045;-74
2020/12/28 01:34:58;;;;;;;18.85;13.32;;;;;;;;;;5052121;28;20017;-74
2020/12/28 01:37:24;;;;;;;17.33;11.00;;;;;;;;;;5051100;28;20017;-75
2020/12/28 01:39:50;;;;;;;15.73;11.38;;;;;;;;;;5051694;28;20414;-75
2020/12/28 01:42:16;;;;;;;14.25;10.57;;;;;;;;;;5050919;28;20029;-75
2020/12/28 01:44:43;;;;;;;16.25;11.73;;;;;;;;;;5050721;28;20017;-75
2020/12/28 01:47:09;;;;;;;19.17;11.85;;;;;;;;;;5050882;28;20029;-75
2020/12/28 01:49:35;;;;;;;13.07;8.93;;;;;;;;;;5050739;28;20453;-75
2020/12/28 01:52:01;;;;;;;17.25;11.45;;;;;;;;;;5052019;28;20120;-75
2020/12/28 01:54:28;;;;;;;13.63;10.68;;;;;;;;;;5050739;28;20044;-75
2020/12/28 01:56:55;;;;;;;13.43;8.65;;;;;;;;;;5051594;28;20017;-75
2020/12/28 01:59:22;;;;;;;13.15;9.80;;;;;;;;;;5052013;28;20025;-75
2020/12/28 02:01:50;;;;;;;12.43;8.38;;;;;;;;;;5051909;28;20025;-75
2020/12/28 02:04:16;;;;;;;11.68;9.02;;;;;;;;;;5051725;28;20020;-75
2020/12/28 02:06:42;;;;;;;10.68;8.50;;;;;;;;;;5051934;28;20071;-76
2020/12/28 02:09:08;;;;;;;11.90;8.85;;;;;;;;;;5052392;28;20017;-77
2020/12/28 02:11:34;;;;;;;10.98;8.20;;;;;;;;;;5051771;28;20111;-74
2020/12/28 02:14:00;;;;;;;11.00;8.35;;;;;;;;;;5050558;28;20523;-76
2020/12/28 02:16:27;;;;;;;10.35;8.43;;;;;;;;;;5052228;28;20013;-74
2020/12/28 02:18:53;;;;;;;12.13;8.30;;;;;;;;;;5050417;28;20028;-74
2020/12/28 02:21:19;;;;;;;15.52;8.25;;;;;;;;;;5051639;28;20020;-74
2020/12/28 02:23:45;;;;;;;11.07;7.47;;;;;;;;;;5051451;28;20025;-74
2020/12/28 02:26:11;;;;;;;11.63;7.75;;;;;;;;;;5051924;28;20388;-74
2020/12/28 02:28:38;;;;;;;8.95;7.65;;;;;;;;;;5052717;28;20048;-74
2020/12/28 02:31:04;;;;;;;11.15;7.53;;;;;;;;;;5054176;28;20045;-74
2020/12/28 02:33:30;;;;;;;10.32;6.32;;;;;;;;;;5054482;28;20036;-75
2020/12/28 02:35:56;;;;;;;10.68;6.57;;;;;;;;;;5055146;28;20013;-75
2020/12/28 02:38:22;;;;;;;9.75;7.18;;;;;;;;;;5055437;28;20458;-76
2020/12/28 02:40:48;;;;;;;10.20;6.40;;;;;;;;;;5054138;28;20087;-75
2020/12/28 02:43:15;;;;;;;10.45;6.90;;;;;;;;;;5055507;28;20029;-75
2020/12/28 02:45:41;;;;;;;10.57;7.10;;;;;;;;;;5053912;28;20449;-74
2020/12/28 02:48:07;;;;;;;10.68;6.78;;;;;;;;;;5054206;28;20020;-75
2020/12/28 02:50:33;;;;;;;9.70;7.20;;;;;;;;;;5055360;28;20100;-75
2020/12/28 02:52:59;;;;;;;9.52;7.70;;;;;;;;;;5053714;28;20434;-75
2020/12/28 02:55:25;;;;;;;11.27;7.07;;;;;;;;;;5055035;28;20041;-74
2020/12/28 02:57:51;;;;;;;8.48;6.85;;;;;;;;;;5055063;28;20073;-74
2020/12/28 03:00:17;;;;;;;10.23;7.70;;;;;;;;;;5055256;28;20021;-75
2020/12/28 03:02:43;;;;;;;10.65;7.35;;;;;;;;;;5054962;28;20066;-75
2020/12/28 03:05:09;;;;;;;10.38;6.28;;;;;;;;;;5055123;28;20017;-75
2020/12/28 03:07:35;;;;;;;10.75;7.68;;;;;;;;;;5053803;28;20021;-75
2020/12/28 03:10:01;;;;;;;11.52;7.40;;;;;;;;;;5053770;28;20078;-75
2020/12/28 03:12:27;;;;;;;10.48;7.00;;;;;;;;;;5053732;28;20032;-76
2020/12/28 03:14:53;;;;;;;12.38;7.38;;;;;;;;;;5054648;28;20013;-76
2020/12/28 03:17:19;;;;;;;12.48;7.00;;;;;;;;;;5054954;28;20029;-75
2020/12/28 03:19:45;;;;;;;12.32;8.10;;;;;;;;;;5054660;28;20115;-76
2020/12/28 03:22:11;;;;;;;14.93;7.03;;;;;;;;;;5053585;28;20184;-75
2020/12/28 03:24:37;;;;;;;13.10;8.82;;;;;;;;;;5053151;28;20044;-76
2020/12/28 03:27:03;;;;;;;13.10;8.45;;;;;;;;;;5053396;28;20021;-76
2020/12/28 03:29:33;;;;;;;14.82;9.88;;;;;;;;;;5053363;28;20029;-76
2020/12/28 03:31:59;;;;;;;12.70;8.63;;;;;;;;;;5054455;28;20041;-76
2020/12/28 03:34:25;;;;;;;15.52;9.32;;;;;;;;;;5054547;28;20063;-74
2020/12/28 03:36:52;;;;;;;13.70;8.95;;;;;;;;;;5053108;28;20017;-75
2020/12/28 03:39:18;;;;;;;15.30;9.20;;;;;;;;;;5053318;28;20013;-74
2020/12/28 03:41:44;;;;;;;13.60;8.75;;;;;;;;;;5052926;28;20025;-74
2020/12/28 03:44:10;;;;;;;16.23;7.95;;;;;;;;;;5053127;28;20357;-75
2020/12/28 03:46:36;;;;;;;12.90;7.88;;;;;;;;;;5053000;28;20050;-74
2020/12/28 03:49:02;;;;;;;14.98;7.60;;;;;;;;;;5052800;28;20373;-75
2020/12/28 03:51:28;;;;;;;13.88;7.88;;;;;;;;;;5054254;28;20025;-76
2020/12/28 03:53:54;;;;;;;10.85;6.97;;;;;;;;;;5053745;28;20021;-75
2020/12/28 03:56:20;;;;;;;13.40;7.40;;;;;;;;;;5052840;28;20353;-75
2020/12/28 03:58:46;;;;;;;11.60;7.22;;;;;;;;;;5052598;28;20426;-75
2020/12/28 04:01:12;;;;;;;13.90;6.97;;;;;;;;;;5052776;28;20071;-76
2020/12/28 04:03:38;;;;;;;13.55;8.77;;;;;;;;;;5054072;28;20361;-75
2020/12/28 04:06:04;;;;;;;11.02;7.47;;;;;;;;;;5052676;28;20115;-76
2020/12/28 04:08:31;;;;;;;15.88;8.63;;;;;;;;;;5052804;28;20100;-76
2020/12/28 04:10:57;;;;;;;11.50;7.95;;;;;;;;;;5052449;28;20016;-75
2020/12/28 04:13:24;;;;;;;13.55;8.15;;;;;;;;;;5052488;28;20531;-76
2020/12/28 04:15:50;;;;;;;13.43;8.30;;;;;;;;;;5053854;28;20027;-76
2020/12/28 04:18:16;;;;;;;16.50;8.73;;;;;;;;;;5052717;28;20028;-75
2020/12/28 04:20:42;;;;;;;18.65;8.98;;;;;;;;;;5052313;28;20025;-75
2020/12/28 04:23:08;;;;;;;15.05;9.00;;;;;;;;;;5053683;28;20087;-76
2020/12/28 04:25:34;;;;;;;15.73;8.68;;;;;;;;;;5052308;28;20364;-76
2020/12/28 04:28:00;;;;;;;15.43;9.45;;;;;;;;;;5053397;28;20127;-76
2020/12/28 04:30:27;;;;;;;15.70;8.95;;;;;;;;;;5052030;28;20075;-77
2020/12/28 04:32:53;;;;;;;11.80;8.02;;;;;;;;;;5051949;28;20036;-76
2020/12/28 04:35:19;;;;;;;14.50;8.50;;;;;;;;;;5052121;28;20027;-76
2020/12/28 04:37:45;;;;;;;14.05;8.93;;;;;;;;;;5051984;28;20028;-76
2020/12/28 04:40:11;;;;;;;14.13;7.82;;;;;;;;;;5052037;28;20017;-76
2020/12/28 04:42:40;;;;;;;14.68;9.50;;;;;;;;;;5053334;28;20016;-76
2020/12/28 04:45:07;;;;;;;14.27;9.43;;;;;;;;;;5051923;28;20029;-76
2020/12/28 04:47:33;;;;;;;13.40;9.48;;;;;;;;;;5051935;28;20021;-76
2020/12/28 04:49:59;;;;;;;13.80;6.82;;;;;;;;;;5051396;28;20024;-76
2020/12/28 04:52:27;;;;;;;14.25;8.25;;;;;;;;;;5052904;28;20021;-76
2020/12/28 04:54:53;;;;;;;14.38;7.72;;;;;;;;;;5052804;28;20009;-76
2020/12/28 04:57:19;;;;;;;11.88;8.05;;;;;;;;;;5051747;28;20025;-76
2020/12/28 04:59:45;;;;;;;11.73;7.88;;;;;;;;;;5052528;28;20067;-76
2020/12/28 05:02:11;;;;;;;13.27;7.88;;;;;;;;;;5051706;28;20017;-75
2020/12/28 05:04:37;;;;;;;16.75;8.65;;;;;;;;;;5051569;28;20020;-74
2020/12/28 05:07:04;;;;;;;17.25;7.55;;;;;;;;;;5051255;28;20147;-75
2020/12/28 05:09:31;;;;;;;13.73;7.75;;;;;;;;;;5052651;28;20074;-76
2020/12/28 05:12:01;;;;;;;12.95;6.93;;;;;;;;;;5051129;28;20025;-76
2020/12/28 05:14:27;;;;;;;13.18;7.72;;;;;;;;;;5051256;28;20028;-76
2020/12/28 05:17:00;;;;;;;10.13;7.55;;;;;;;;;;5052341;28;20013;-76
2020/12/28 05:19:26;;;;;;;15.90;9.07;;;;;;;;;;5051074;28;20032;-75
2020/12/28 05:21:53;;;;;;;9.05;6.78;;;;;;;;;;5052033;28;20097;-75
2020/12/28 05:24:19;;;;;;;14.40;7.60;;;;;;;;;;5052479;28;20024;-76
2020/12/28 05:26:46;;;;;;;12.60;6.82;;;;;;;;;;5052230;28;20083;-75
2020/12/28 05:29:16;;;;;;;15.43;7.22;;;;;;;;;;5052412;28;20024;-75
2020/12/28 05:31:43;;;;;;;13.25;7.10;;;;;;;;;;5051985;28;20041;-75
2020/12/28 05:34:16;;;;;;;11.43;6.97;;;;;;;;;;5052034;28;20025;-76
2020/12/28 05:36:43;;;;;;;10.80;6.55;;;;;;;;;;5050987;28;20021;-75
2020/12/28 05:39:10;;;;;;;14.65;6.88;;;;;;;;;;5050891;28;20056;-75
2020/12/28 05:41:36;;;;;;;12.52;5.97;;;;;;;;;;5050944;28;20013;-75
2020/12/28 05:44:09;;;;;;;11.90;6.63;;;;;;;;;;5050701;28;20461;-75
2020/12/28 05:46:36;;;;;;;11.73;6.15;;;;;;;;;;5050943;28;20021;-74
2020/12/28 05:49:04;;;;;;;11.25;6.35;;;;;;;;;;5050406;28;20021;-75
2020/12/28 05:51:32;;;;;;;11.38;6.35;;;;;;;;;;5050821;28;20462;-75
2020/12/28 05:53:59;;;;;;;11.00;6.30;;;;;;;;;;5050574;28;20032;-75
2020/12/28 05:56:25;;;;;;;12.50;6.68;;;;;;;;;;5050921;28;20326;-75
2020/12/28 05:58:52;;;;;;;15.20;6.47;;;;;;;;;;5051518;28;20366;-75
2020/12/28 06:01:21;;;;;;;14.80;7.28;;;;;;;;;;5051805;28;20017;-76
2020/12/28 06:03:48;;;;;;;12.55;6.60;;;;;;;;;;5054610;28;20029;-76
2020/12/28 06:06:16;;;;;;;10.70;6.55;;;;;;;;;;5054834;28;20017;-77
2020/12/28 06:08:42;;;;;;;11.63;7.38;;;;;;;;;;5054914;28;20021;-77
2020/12/28 06:11:08;;;;;;;11.50;6.53;;;;;;;;;;5055930;28;20126;-74
2020/12/28 06:13:34;;;;;;;12.27;5.85;;;;;;;;;;5055895;28;20033;-75
2020/12/28 06:16:01;;;;;;;15.90;7.70;;;;;;;;;;5055997;28;20043;-74
2020/12/28 06:18:27;;;;;;;13.43;7.50;;;;;;;;;;5054644;28;20025;-74
2020/12/28 06:20:53;;;;;;;22.38;7.82;;;;;;;;;;5055656;28;20020;-74
2020/12/28 06:23:29;;;;;;;8.98;5.85;;;;;;;;;;5055874;28;20021;-75
2020/12/28 06:25:55;;;;;;;12.70;7.35;;;;;;;;;;5055653;28;20106;-76
2020/12/28 06:28:28;;;;;;;10.35;6.97;;;;;;;;;;5054144;28;20017;-75
2020/12/28 06:30:54;;;;;;;11.52;7.05;;;;;;;;;;5055386;28;20033;-75
2020/12/28 06:33:20;;;;;;;16.75;8.13;;;;;;;;;;5054402;28;20059;-75
2020/12/28 06:35:47;;;;;;;12.82;7.75;;;;;;;;;;5054346;28;20163;-75
2020/12/28 06:38:13;;;;;;;13.15;7.35;;;;;;;;;;5054216;28;20032;-75
2020/12/28 06:40:40;;;;;;;12.88;7.88;;;;;;;;;;5055682;28;20017;-76
2020/12/28 06:43:13;;;;;;;12.35;8.27;;;;;;;;;;5055331;28;20021;-76
2020/12/28 06:45:40;;;;;;;14.85;9.23;;;;;;;;;;5055550;28;20025;-75
2020/12/28 06:48:16;;;;;;;17.40;9.45;;;;;;;;;;5053822;28;20648;-75
2020/12/28 06:50:42;;;;;;;16.33;9.85;;;;;;;;;;5055217;28;20457;-75
2020/12/28 06:53:08;;;;;;;15.50;10.65;;;;;;;;;;5054703;28;20043;-75
2020/12/28 06:55:34;;;;;;;13.85;9.23;;;;;;;;;;5055272;28;20029;-75
2020/12/28 06:58:01;;;;;;;14.40;8.43;;;;;;;;;;5053772;28;20461;-75
2020/12/28 07:00:27;;;;;;;14.07;8.45;;;;;;;;;;5055000;28;20019;-75
2020/12/28 07:02:53;;;;;;;17.85;11.02;;;;;;;;;;5053501;28;20025;-75
2020/12/28 07:05:21;;;;;;;15.27;9.07;;;;;;;;;;5053637;28;20104;-74
2020/12/28 07:07:47;;;;;;;19.00;11.25;;;;;;;;;;5055064;28;20012;-75
2020/12/28 07:10:21;;;;;;;15.50;9.68;;;;;;;;;;5053412;28;20353;-76
2020/12/28 07:12:47;;;;;;;14.30;9.30;;;;;;;;;;5072026;28;20028;-75
2020/12/28 07:15:14;;;;;;;18.23;9.45;;;;;;;;;;5058595;28;20029;-76
2020/12/28 07:17:40;;;;;;;15.20;9.80;;;;;;;;;;5054922;28;20016;-76
2020/12/28 07:20:13;;;;;;;19.00;10.27;;;;;;;;;;5053306;28;20025;-76
2020/12/28 07:22:40;;;;;;;13.60;9.38;;;;;;;;;;5053512;28;20044;-76
2020/12/28 07:25:07;;;;;;;14.70;9.38;;;;;;;;;;5054586;28;20078;-76
2020/12/28 07:27:33;;;;;;;16.25;9.88;;;;;;;;;;5054925;28;20029;-76
2020/12/28 07:30:04;;;;;;;15.52;9.82;;;;;;;;;;5053032;28;20346;-76
2020/12/28 07:32:30;;;;;;;16.13;9.52;;;;;;;;;;5054446;28;20040;-76
2020/12/28 07:34:56;;;;;;;14.23;9.32;;;;;;;;;;5053947;28;20103;-75
2020/12/28 07:37:22;;;;;;;13.23;8.93;;;;;;;;;;5054563;28;20051;-74
2020/12/28 07:39:49;;;;;;;15.95;10.02;;;;;;;;;;5053281;28;20021;-75
2020/12/28 07:42:22;;;;;;;16.90;9.90;;;;;;;;;;5052811;28;20093;-74
2020/12/28 07:44:57;;;;;;;14.25;8.80;;;;;;;;;;5063129;28;20017;-74
2020/12/28 07:47:27;;;;;;;13.80;8.10;;;;;;;;;;5060777;28;20068;-74
2020/12/28 07:49:55;;;;;;;12.75;7.13;;;;;;;;;;5064645;28;20013;-74
2020/12/28 07:52:24;;;;;;;14.38;7.78;;;;;;;;;;5063277;28;20072;-74
2020/12/28 07:55:08;;;;;;;13.90;8.38;;;;;;;;;;5062768;28;20013;-74
2020/12/28 07:57:39;;;;;;;18.00;8.07;;;;;;;;;;5064074;28;20027;-74
2020/12/28 08:00:08;;;;;;;13.50;7.97;;;;;;;;;;5063371;28;20013;-75
2020/12/28 08:02:40;;;;;;;18.88;8.82;;;;;;;;;;5061202;28;20052;-75
2020/12/28 08:05:07;;;;;;;14.93;6.65;;;;;;;;;;5061105;28;20415;-75
2020/12/28 08:07:34;;;;;;;15.20;8.07;;;;;;;;;;5063270;28;20044;-74
2020/12/28 08:10:01;;;;;;;21.30;7.80;;;;;;;;;;5060100;28;20017;-74
2020/12/28 08:12:30;;;;;;;11.57;7.22;;;;;;;;;;5063089;28;20021;-74
2020/12/28 08:14:57;;;;;;;16.13;8.67;;;;;;;;;;5062522;28;20044;-76
2020/12/28 08:17:23;;;;;;;15.85;7.93;;;;;;;;;;5061913;28;20016;-74
2020/12/28 08:19:49;;;;;;;11.23;6.22;;;;;;;;;;5071376;28;20024;-75
2020/12/28 08:22:22;;;;;;;13.60;7.00;;;;;;;;;;5073248;28;20021;-75
2020/12/28 08:25:01;;;;;;;12.55;7.40;;;;;;;;;;5073193;28;20330;-75
2020/12/28 08:27:31;;;;;;;12.93;7.22;;;;;;;;;;5072139;28;20020;-75
2020/12/28 08:29:58;;;;;;;10.65;6.35;;;;;;;;;;5067419;28;20055;-75
2020/12/28 08:32:29;;;;;;;11.68;6.80;;;;;;;;;;5060615;28;20376;-75
2020/12/28 08:34:59;;;;;;;15.00;6.43;;;;;;;;;;5062165;28;20040;-74
2020/12/28 08:37:25;;;;;;;15.75;5.75;;;;;;;;;;5061232;28;20013;-74
2020/12/28 08:39:51;;;;;;;10.90;6.22;;;;;;;;;;5061041;28;20017;-74
2020/12/28 08:42:32;;;;;;;12.15;6.72;;;;;;;;;;5061449;28;20017;-74
2020/12/28 08:44:58;;;;;;;10.65;6.28;;;;;;;;;;5062537;28;20020;-74
2020/12/28 08:47:27;;;;;;;9.95;4.93;;;;;;;;;;5054188;28;20021;-72
2020/12/28 08:49:53;;;;;;;20.40;7.15;;;;;;;;;;5052822;28;20028;-74
2020/12/28 08:52:20;;;;;;;12.32;6.13;;;;;;;;;;5053033;28;20021;-74
2020/12/28 08:54:56;;;;;;;10.60;6.50;;;;;;;;;;5052984;28;20064;-74
2020/12/28 08:57:23;;;;;;;8.20;5.57;;;;;;;;;;5052930;28;20369;-74
2020/12/28 08:59:50;;;;;;;9.63;5.68;;;;;;;;;;5053039;28;20017;-74
2020/12/28 09:02:16;;;;;;;8.82;4.90;;;;;;;;;;5052685;28;20350;-74
2020/12/28 09:04:43;;;;;;;9.07;5.22;;;;;;;;;;5052751;28;20025;-74
2020/12/28 09:07:09;;;;;;;9.70;4.22;;;;;;;;;;5051233;28;20017;-74
2020/12/28 09:09:35;;;;;;;7.32;4.10;;;;;;;;;;5053196;28;20017;-75
2020/12/28 09:12:01;;;;;;;8.90;3.78;;;;;;;;;;5051179;28;20025;-75
2020/12/28 09:14:27;;;;;;;7.07;4.70;;;;;;;;;;5051240;28;20028;-75
2020/12/28 09:16:53;;;;;;;6.80;3.63;;;;;;;;;;5051326;28;20021;-74
2020/12/28 09:19:19;;;;;;;5.80;3.72;;;;;;;;;;5052216;28;20027;-75
2020/12/28 09:21:45;;;;;;;6.38;3.42;;;;;;;;;;5050362;28;20463;-74
2020/12/28 09:24:11;;;;;;;9.57;3.97;;;;;;;;;;5050778;28;20047;-75
2020/12/28 09:26:37;;;;;;;7.75;3.40;;;;;;;;;;5052638;28;20082;-75
2020/12/28 09:29:03;;;;;;;7.53;3.30;;;;;;;;;;5052157;28;20021;-75
2020/12/28 09:31:29;;;;;;;6.63;3.35;;;;;;;;;;5050930;28;20143;-75
2020/12/28 09:33:56;;;;;;;7.55;3.20;;;;;;;;;;5052161;28;20051;-75
2020/12/28 09:36:22;;;;;;;5.50;3.03;;;;;;;;;;5050894;28;20017;-75
2020/12/28 09:38:48;;;;;;;6.60;3.50;;;;;;;;;;5055748;28;20024;-75
2020/12/28 09:41:15;;;;;;;7.43;3.20;;;;;;;;;;5060917;28;20024;-75
2020/12/28 09:43:41;;;;;;;6.03;3.05;;;;;;;;;;5059919;28;20457;-73
2020/12/28 09:46:08;;;;;;;5.20;2.90;;;;;;;;;;5050875;28;20074;-75
2020/12/28 09:48:34;;;;;;;4.70;2.60;;;;;;;;;;5052102;28;20025;-76
2020/12/28 09:51:00;;;;;;;7.68;2.90;;;;;;;;;;5052033;28;20021;-75
2020/12/28 09:53:26;;;;;;;5.90;3.15;;;;;;;;;;5051922;28;20071;-76
2020/12/28 09:55:52;;;;;;;7.68;3.10;;;;;;;;;;5052226;28;20020;-75
2020/12/28 09:58:18;;;;;;;5.18;2.92;;;;;;;;;;5051716;28;20021;-76
2020/12/28 10:00:44;;;;;;;6.97;2.70;;;;;;;;;;5052149;28;20453;-76
2020/12/28 10:03:10;;;;;;;6.03;2.50;;;;;;;;;;5051807;28;20025;-76
2020/12/28 10:05:36;;;;;;;5.53;2.15;;;;;;;;;;5052358;28;20024;-76
2020/12/28 10:08:02;;;;;;;6.32;2.20;;;;;;;;;;5051588;28;20087;-75
2020/12/28 10:10:29;;;;;;;3.63;2.10;;;;;;;;;;5052119;28;20017;-73
2020/12/28 10:12:55;;;;;;;5.38;1.73;;;;;;;;;;5052096;28;20025;-75
2020/12/28 10:15:21;;;;;;;5.40;2.38;;;;;;;;;;5063678;28;20095;-75
2020/12/28 10:18:06;;;;;;;7.40;2.53;;;;;;;;;;5070730;28;20021;-75
2020/12/28 10:20:32;;;;;;;4.07;2.00;;;;;;;;;;5069060;28;20469;-75
2020/12/28 10:22:58;;;;;;;6.03;1.98;;;;;;;;;;5069165;28;20052;-76
2020/12/28 10:25:24;;;;;;;4.15;1.92;;;;;;;;;;5070748;28;20105;-75
2020/12/28 10:27:50;;;;;;;4.80;1.63;;;;;;;;;;5071912;28;20017;-73
2020/12/28 10:30:16;;;;;;;3.72;1.90;;;;;;;;;;5070368;28;20028;-74
2020/12/28 10:32:43;;;;;;;7.18;2.08;;;;;;;;;;5071660;28;20044;-74
2020/12/28 10:35:09;;;;;;;6.68;2.40;;;;;;;;;;5070034;28;20085;-75
2020/12/28 10:37:35;;;;;;;5.03;2.00;;;;;;;;;;5070568;28;20025;-75
2020/12/28 10:40:01;;;;;;;7.22;2.20;;;;;;;;;;5070252;28;20016;-73
2020/12/28 10:42:27;;;;;;;4.82;2.00;;;;;;;;;;5070265;28;20365;-74
2020/12/28 10:44:53;;;;;;;5.55;2.00;;;;;;;;;;5070398;28;20024;-74
2020/12/28 10:47:19;;;;;;;3.35;1.33;;;;;;;;;;5070217;28;20055;-75
2020/12/28 10:49:45;;;;;;;7.18;2.58;;;;;;;;;;5055331;28;20403;-75
2020/12/28 10:52:11;;;;;;;4.40;1.85;;;;;;;;;;5053604;28;20036;-75
2020/12/28 10:54:37;;;;;;;5.05;1.67;;;;;;;;;;5055103;28;20013;-75
2020/12/28 10:57:03;;;;;;;5.40;1.70;;;;;;;;;;5055012;28;20457;-75
2020/12/28 10:59:29;;;;;;;6.32;1.67;;;;;;;;;;5053078;28;20052;-77
2020/12/28 11:01:58;;;;;;;5.60;2.17;;;;;;;;;;5054760;28;20055;-78
2020/12/28 11:04:24;;;;;;;3.83;1.80;;;;;;;;;;5053553;28;20025;-76
2020/12/28 11:06:51;;;;;;;5.75;2.30;;;;;;;;;;5053763;28;20024;-76
2020/12/28 11:09:17;;;;;;;3.22;1.85;;;;;;;;;;5053229;28;20027;-75
2020/12/28 11:11:47;;;;;;;6.65;1.95;;;;;;;;;;5053654;28;20029;-75
2020/12/28 11:14:13;;;;;;;5.88;1.75;;;;;;;;;;5065285;28;20013;-75
2020/12/28 11:16:39;;;;;;;3.63;1.42;;;;;;;;;;5050988;28;20098;-76
2020/12/28 11:19:05;;;;;;;3.20;1.45;;;;;;;;;;5050975;28;20068;-76
2020/12/28 11:21:32;;;;;;;4.28;1.77;;;;;;;;;;5054937;28;20024;-76
2020/12/28 11:24:01;;;;;;;5.95;1.42;;;;;;;;;;5054670;28;20033;-76
2020/12/28 11:26:28;;;;;;;6.28;2.65;;;;;;;;;;5054700;28;20044;-77
2020/12/28 11:28:54;;;;;;;5.38;1.63;;;;;;;;;;5053379;28;20152;-76
2020/12/28 11:31:20;;;;;;;3.78;1.23;;;;;;;;;;5052929;28;20090;-77
2020/12/28 11:33:47;;;;;;;4.25;1.30;;;;;;;;;;5053189;28;20032;-76
2020/12/28 11:36:13;;;;;;;3.78;1.80;;;;;;;;;;5052919;28;20029;-76
2020/12/28 11:38:39;;;;;;;6.50;2.35;;;;;;;;;;5052196;28;20029;-76
2020/12/28 11:41:05;;;;;;;5.13;1.80;;;;;;;;;;5050421;28;20023;-77
2020/12/28 11:43:31;;;;;;;7.00;2.53;;;;;;;;;;5053078;28;20020;-77
2020/12/28 11:45:57;;;;;;;4.35;1.90;;;;;;;;;;5053066;28;20021;-76
2020/12/28 11:48:24;;;;;;;4.78;1.98;;;;;;;;;;5052891;28;20021;-77
2020/12/28 11:50:50;;;;;;;4.15;1.70;;;;;;;;;;5052888;28;20013;-77
2020/12/28 11:53:16;;;;;;;5.70;1.38;;;;;;;;;;5052404;28;20025;-76
2020/12/28 11:58:27;;;;;;;5.97;1.77;;;;;;;;;;5053914;28;20051;-78
2020/12/28 12:00:53;;;;;;;6.35;1.90;;;;;;;;;;5051485;28;20465;-77
2020/12/28 12:03:19;;;;;;;4.63;1.80;;;;;;;;;;5052465;28;20021;-76
2020/12/28 12:05:45;;;;;;;4.07;1.60;;;;;;;;;;5052634;28;20020;-76
2020/12/28 12:08:11;;;;;;;5.60;1.83;;;;;;;;;;5053981;28;20013;-76
2020/12/28 12:10:37;;;;;;;4.63;1.50;;;;;;;;;;5053279;28;20067;-76
2020/12/28 12:13:03;;;;;;;5.93;2.45;;;;;;;;;;5051809;28;20029;-74
2020/12/28 12:15:29;;;;;;;4.72;2.00;;;;;;;;;;5051085;28;20035;-75
2020/12/28 12:17:56;;;;;;;4.60;1.58;;;;;;;;;;5049999;28;20023;-75
2020/12/28 12:20:22;;;;;;;3.65;1.63;;;;;;;;;;5050599;28;20017;-74
2020/12/28 12:22:48;;;;;;;5.35;1.70;;;;;;;;;;5051197;28;20025;-76
2020/12/28 12:25:14;;;;;;;5.30;2.20;;;;;;;;;;5050078;28;20499;-76
2020/12/28 12:27:40;;;;;;;4.95;1.85;;;;;;;;;;5050696;28;20461;-76
2020/12/28 12:30:06;;;;;;;5.78;2.33;;;;;;;;;;5049956;28;20017;-76
2020/12/28 12:32:32;;;;;;;3.80;1.60;;;;;;;;;;5049963;28;20048;-74
2020/12/28 12:34:58;;;;;;;4.82;1.67;;;;;;;;;;5049880;28;20029;-76
2020/12/28 12:37:24;;;;;;;2.25;1.40;;;;;;;;;;5049354;28;20098;-75
2020/12/28 12:39:50;;;;;;;4.00;1.70;;;;;;;;;;5051877;28;20017;-75
2020/12/28 12:42:16;;;;;;;4.97;2.65;;;;;;;;;;5051758;28;20051;-76
2020/12/28 12:44:44;;;;;;;5.40;1.70;;;;;;;;;;5051911;28;20453;-73
2020/12/28 12:47:10;;;;;;;5.07;1.83;;;;;;;;;;5051641;28;20017;-75
2020/12/28 12:49:36;;;;;;;2.70;1.35;;;;;;;;;;5058664;28;20047;-75
2020/12/28 12:52:15;;;;;;;5.80;2.15;;;;;;;;;;5061859;28;20465;-75
2020/12/28 12:54:42;;;;;;;4.25;1.38;;;;;;;;;;5061153;28;20107;-75
2020/12/28 12:57:08;;;;;;;6.68;2.70;;;;;;;;;;5059200;28;20063;-75
2020/12/28 13:00:02;;;;;;;3.83;1.80;;;;;;;;;;5061952;28;20020;-75
2020/12/28 13:02:22;;;;;;;4.20;1.45;;;;;;;;;;5065391;28;20055;-76
2020/12/28 13:04:48;;;;;;;7.18;1.90;;;;;;;;;;5071295;28;20048;-75
2020/12/28 13:07:14;;;;;;;5.70;1.67;;;;;;;;;;5072870;28;20023;-75
2020/12/28 13:09:40;;;;;;;4.55;1.80;;;;;;;;;;5071531;28;20023;-75
2020/12/28 13:12:06;;;;;;;4.50;2.38;;;;;;;;;;5071912;28;20016;-76
2020/12/28 13:14:32;;;;;;;4.38;2.10;;;;;;;;;;5063186;28;20017;-77
2020/12/28 13:16:58;;;;;;;4.47;2.00;;;;;;;;;;5051313;28;20040;-76
2020/12/28 13:19:24;;;;;;;7.43;1.52;;;;;;;;;;5051138;28;20021;-76
2020/12/28 13:21:51;;;;;;;4.75;2.00;;;;;;;;;;5067367;28;20024;-75
2020/12/28 13:24:17;;;;;;;5.65;2.17;;;;;;;;;;5070981;28;20013;-76
2020/12/28 13:26:43;;;;;;;4.20;1.60;;;;;;;;;;5072797;28;20534;-76
2020/12/28 13:29:09;;;;;;;5.18;1.38;;;;;;;;;;5070982;28;20017;-77
2020/12/28 13:31:35;;;;;;;7.53;2.25;;;;;;;;;;5070858;28;20473;-77
2020/12/28 13:34:01;;;;;;;4.30;1.55;;;;;;;;;;5071027;28;20115;-76
2020/12/28 13:36:30;;;;;;;13.25;2.55;;;;;;;;;;5072174;28;20027;-76
2020/12/28 13:38:57;;;;;;;5.30;1.93;;;;;;;;;;5070795;28;20121;-75
2020/12/28 13:41:23;;;;;;;4.63;1.40;;;;;;;;;;5070824;28;20479;-76
2020/12/28 13:43:49;;;;;;;6.65;2.42;;;;;;;;;;5070886;28;20029;-76
2020/12/28 13:46:15;;;;;;;4.80;2.28;;;;;;;;;;5070654;28;20012;-75
2020/12/28 13:48:41;;;;;;;3.83;2.10;;;;;;;;;;5071875;28;20016;-75
2020/12/28 13:51:07;;;;;;;3.78;1.70;;;;;;;;;;5071588;28;20020;-76
2020/12/28 13:53:33;;;;;;;4.32;1.77;;;;;;;;;;5072125;28;20056;-75
2020/12/28 13:55:59;;;;;;;4.47;1.73;;;;;;;;;;5070926;28;20472;-75
2020/12/28 13:58:25;;;;;;;4.43;1.70;;;;;;;;;;5070506;28;20028;-75
2020/12/28 14:00:51;;;;;;;6.78;1.85;;;;;;;;;;5072157;28;20017;-75
2020/12/28 14:03:17;;;;;;;4.90;1.73;;;;;;;;;;5071891;28;20024;-75
2020/12/28 14:05:43;;;;;;;4.80;1.83;;;;;;;;;;5070969;28;20021;-75
2020/12/28 14:08:10;;;;;;;5.15;2.20;;;;;;;;;;5071852;28;20114;-75
2020/12/28 14:10:36;;;;;;;6.40;2.10;;;;;;;;;;5070846;28;20016;-75
2020/12/28 14:13:02;;;;;;;4.88;1.90;;;;;;;;;;5070836;28;20028;-76
2020/12/28 14:15:28;;;;;;;5.45;1.98;;;;;;;;;;5070219;28;20021;-73
2020/12/28 14:17:54;;;;;;;4.72;1.90;;;;;;;;;;5070912;28;20025;-74
2020/12/28 14:20:20;;;;;;;5.00;1.77;;;;;;;;;;5071850;28;20090;-74
2020/12/28 14:22:46;;;;;;;6.38;1.80;;;;;;;;;;5071777;28;20029;-75
2020/12/28 14:25:12;;;;;;;5.07;1.95;;;;;;;;;;5072975;28;20023;-75
2020/12/28 14:27:38;;;;;;;3.50;1.65;;;;;;;;;;5074566;28;20062;-75
2020/12/28 14:30:04;;;;;;;4.22;1.80;;;;;;;;;;5075654;28;20044;-75
2020/12/28 14:32:30;;;;;;;6.13;2.40;;;;;;;;;;5075407;28;20487;-74
2020/12/28 14:34:56;;;;;;;5.22;2.42;;;;;;;;;;5075794;28;20017;-74